Time;durP1;ratioP1;P1;durP2;ratioP2;P2;SDS_P1;SDS_P2;PMS_P1;PMS_P2;Temp;Humidity;BMP_temperature;BMP_pressure;BME280_temperature;BME280_humidity;BME280_pressure;Samples;Min_cycle;Max_cycle;Signal;HPM_P1;HPM_P2
2022/12/26 00:01:21;;;;;;;9.77;7.80;;;12.00;99.90;;;;;;5052257;28;20439;-75
2022/12/26 00:03:47;;;;;;;14.38;8.77;;;11.90;99.90;;;;;;5056687;28;20783;-74
2022/12/26 00:06:22;;;;;;;13.43;8.32;;;11.90;99.90;;;;;;5062912;28;20386;-75
2022/12/26 00:08:48;;;;;;;10.98;7.90;;;11.90;99.90;;;;;;5055224;28;20381;-74
2022/12/26 00:11:14;;;;;;;11.45;8.07;;;12.00;99.90;;;;;;5052327;28;20769;-75
2022/12/26 00:13:40;;;;;;;14.93;8.40;;;11.90;99.90;;;;;;5052431;28;20385;-75
2022/12/26 00:16:18;;;;;;;11.52;8.35;;;11.90;99.90;;;;;;5052433;28;20917;-75
2022/12/26 00:18:44;;;;;;;16.13;9.15;;;11.90;99.90;;;;;;5052320;28;20412;-75
2022/12/26 00:21:12;;;;;;;16.00;8.93;;;11.90;99.90;;;;;;5051702;28;20439;-74
2022/12/26 00:23:38;;;;;;;13.50;8.60;;;11.90;99.90;;;;;;5052244;28;20392;-73
2022/12/26 00:26:13;;;;;;;11.32;8.60;;;11.90;99.90;;;;;;5051833;28;20420;-76
2022/12/26 00:28:38;;;;;;;11.85;8.00;;;11.90;99.90;;;;;;5052072;28;20393;-74
2022/12/26 00:31:06;;;;;;;11.90;8.05;;;12.00;99.90;;;;;;5051226;28;20389;-74
2022/12/26 00:33:36;;;;;;;10.63;7.30;;;12.00;99.90;;;;;;5051518;28;20436;-73
2022/12/26 00:36:07;;;;;;;8.57;6.65;;;12.00;99.90;;;;;;5051976;28;20385;-72
2022/12/26 00:38:35;;;;;;;12.45;6.82;;;12.10;99.90;;;;;;5051834;28;20507;-73
2022/12/26 00:41:00;;;;;;;13.60;6.63;;;12.10;99.90;;;;;;5051632;28;20390;-75
2022/12/26 00:43:26;;;;;;;14.05;7.45;;;12.10;99.90;;;;;;5050594;28;21005;-74
2022/12/26 00:45:52;;;;;;;9.70;6.60;;;12.10;99.90;;;;;;5052415;28;20403;-74
2022/12/26 00:48:17;;;;;;;11.15;6.88;;;12.10;99.90;;;;;;5053083;28;20723;-74
2022/12/26 00:50:43;;;;;;;13.13;7.63;;;12.10;99.90;;;;;;5053654;28;20450;-75
2022/12/26 00:53:09;;;;;;;11.52;8.02;;;12.00;99.90;;;;;;5052958;28;20385;-74
2022/12/26 00:55:34;;;;;;;13.38;8.18;;;12.10;99.90;;;;;;5054383;28;20402;-74
2022/12/26 00:58:00;;;;;;;11.32;6.93;;;12.10;99.90;;;;;;5051439;28;20409;-74
2022/12/26 01:00:26;;;;;;;10.93;6.50;;;12.20;99.90;;;;;;5056625;28;20441;-73
2022/12/26 01:02:51;;;;;;;9.07;5.70;;;12.30;99.90;;;;;;5056846;28;20381;-75
2022/12/26 01:05:17;;;;;;;8.63;5.50;;;12.30;99.90;;;;;;5051621;28;20392;-74
2022/12/26 01:07:42;;;;;;;9.60;6.10;;;12.30;99.90;;;;;;5051086;28;20413;-73
2022/12/26 01:10:10;;;;;;;8.90;5.97;;;12.60;99.90;;;;;;5051454;28;20393;-73
2022/12/26 01:12:36;;;;;;;10.50;6.30;;;12.40;99.90;;;;;;5050694;28;20886;-74
2022/12/26 01:15:02;;;;;;;10.37;6.27;;;12.30;99.90;;;;;;5049710;28;20439;-73
2022/12/26 01:17:28;;;;;;;12.45;6.43;;;12.30;99.90;;;;;;5050806;28;20381;-74
2022/12/26 01:19:55;;;;;;;8.75;6.03;;;12.20;99.90;;;;;;5050834;28;20381;-73
2022/12/26 01:22:20;;;;;;;8.97;6.37;;;12.20;99.90;;;;;;5049107;28;20396;-75
2022/12/26 01:24:46;;;;;;;12.10;7.10;;;12.10;99.90;;;;;;5051093;28;20776;-75
2022/12/26 01:27:12;;;;;;;8.87;6.67;;;12.20;99.90;;;;;;5051003;28;20385;-75
2022/12/26 01:29:37;;;;;;;9.15;6.65;;;12.10;99.90;;;;;;5051011;28;20913;-75
2022/12/26 01:32:04;;;;;;;13.50;7.10;;;12.10;99.90;;;;;;5049115;28;20389;-74
2022/12/26 01:34:29;;;;;;;11.77;6.80;;;12.00;99.90;;;;;;5050653;28;20508;-74
2022/12/26 01:36:55;;;;;;;9.48;6.80;;;12.00;99.90;;;;;;5049398;28;20826;-75
2022/12/26 01:39:20;;;;;;;10.63;6.70;;;12.00;99.90;;;;;;5050607;28;20405;-74
2022/12/26 01:41:46;;;;;;;7.87;6.30;;;12.00;99.90;;;;;;5050310;28;20408;-76
2022/12/26 01:44:49;;;;;;;11.93;6.53;;;11.90;99.90;;;;;;5050837;28;20393;-75
2022/12/26 01:47:16;;;;;;;11.68;6.60;;;12.00;99.90;;;;;;5050954;28;20380;-74
2022/12/26 01:49:48;;;;;;;10.48;6.85;;;12.00;99.90;;;;;;5050894;28;20393;-74
2022/12/26 01:52:27;;;;;;;11.10;7.10;;;11.90;99.90;;;;;;5050061;28;20443;-73
2022/12/26 01:54:53;;;;;;;11.68;7.50;;;11.80;99.90;;;;;;5050636;28;20825;-75
2022/12/26 01:57:42;;;;;;;12.10;7.40;;;11.80;99.90;;;;;;5049219;28;20428;-75
2022/12/26 02:00:08;;;;;;;12.40;6.93;;;11.80;99.90;;;;;;5050190;28;20447;-74
2022/12/26 02:05:32;;;;;;;9.48;6.90;;;11.80;99.90;;;;;;5049748;28;20378;-73
2022/12/26 02:05:35;;;;;;;13.82;7.22;;;11.80;99.90;;;;;;5050572;28;20855;-74
2022/12/26 02:08:03;;;;;;;9.75;6.82;;;11.80;99.90;;;;;;5049320;28;20389;-74
2022/12/26 02:10:32;;;;;;;12.70;6.97;;;11.80;99.90;;;;;;5049174;28;20541;-74
2022/12/26 02:12:59;;;;;;;8.82;6.22;;;11.70;99.90;;;;;;5050003;28;20381;-74
2022/12/26 02:15:25;;;;;;;8.23;6.75;;;11.80;99.90;;;;;;5050252;28;20385;-74
2022/12/26 02:17:50;;;;;;;8.77;6.38;;;11.80;99.90;;;;;;5049181;28;20408;-73
2022/12/26 02:20:18;;;;;;;12.30;6.85;;;11.80;99.90;;;;;;5052078;28;20738;-74
2022/12/26 02:23:12;;;;;;;9.70;6.20;;;11.80;99.90;;;;;;5053991;28;20936;-75
2022/12/26 02:25:59;;;;;;;9.15;5.95;;;11.90;99.90;;;;;;5054509;28;20970;-75
2022/12/26 02:29:01;;;;;;;9.52;6.20;;;11.80;99.90;;;;;;5055662;28;20381;-74
2022/12/26 02:31:30;;;;;;;9.20;6.00;;;11.90;99.90;;;;;;5056284;28;20382;-72
2022/12/26 02:34:21;;;;;;;10.25;6.30;;;11.90;99.90;;;;;;5059374;28;20381;-74
2022/12/26 02:37:32;;;;;;;9.95;6.40;;;11.80;99.90;;;;;;5064662;28;20389;-74
2022/12/26 02:40:09;;;;;;;9.80;6.30;;;11.80;99.90;;;;;;5061873;28;20851;-75
2022/12/26 02:43:00;;;;;;;9.30;6.45;;;11.90;99.90;;;;;;5057558;28;20448;-73
2022/12/26 02:48:38;;;;;;;9.90;6.18;;;11.90;99.90;;;;;;5055189;28;20381;-73
2022/12/26 03:15:07;;;;;;;7.53;5.50;;;12.10;99.90;;;;;;5035378;28;20378;-77
2022/12/26 03:17:39;;;;;;;11.52;6.00;;;12.00;99.90;;;;;;5037003;28;20390;-75
2022/12/26 03:20:15;;;;;;;9.20;6.00;;;12.00;99.90;;;;;;5043853;28;20752;-74
2022/12/26 03:22:55;;;;;;;9.27;5.40;;;11.90;99.90;;;;;;5041188;28;20391;-75
2022/12/26 03:28:40;;;;;;;8.57;4.95;;;11.80;99.90;;;;;;5033326;28;20807;-76
2022/12/26 03:31:11;;;;;;;6.10;4.90;;;11.80;99.90;;;;;;5031843;28;20452;-74
2022/12/26 03:36:32;;;;;;;7.13;5.00;;;11.70;99.90;;;;;;5032862;28;20771;-76
2022/12/26 03:39:16;;;;;;;7.28;4.38;;;11.70;99.90;;;;;;5033118;28;20395;-73
2022/12/26 04:44:23;;;;;;;3.80;3.40;;;10.90;99.90;;;;;;5031158;28;20390;-74
2022/12/26 04:46:50;;;;;;;3.50;3.20;;;10.90;99.90;;;;;;5032259;28;20387;-74
2022/12/26 04:52:04;;;;;;;3.45;3.15;;;11.00;99.90;;;;;;5031274;28;20386;-75
2022/12/26 04:54:30;;;;;;;3.72;3.33;;;11.00;99.90;;;;;;5031027;28;20489;-74
2022/12/26 04:56:55;;;;;;;3.85;3.40;;;11.10;99.90;;;;;;5030754;28;20502;-75
2022/12/26 04:59:22;;;;;;;4.00;3.60;;;11.10;99.90;;;;;;5030788;28;20407;-75
2022/12/26 05:10:14;;;;;;;6.20;4.63;;;11.00;99.90;;;;;;5031143;28;20398;-77
2022/12/26 05:12:39;;;;;;;4.10;3.80;;;11.10;99.90;;;;;;5030665;28;20537;-74
2022/12/26 05:15:05;;;;;;;5.35;4.20;;;11.00;99.90;;;;;;5029634;28;20485;-75
2022/12/26 05:28:42;;;;;;;7.40;5.10;;;10.90;99.90;;;;;;5034110;28;20466;-74
2022/12/26 05:31:10;;;;;;;6.13;5.38;;;10.90;99.90;;;;;;5030616;28;20391;-75
2022/12/26 05:36:21;;;;;;;6.07;5.30;;;10.80;99.90;;;;;;5034365;28;20383;-74
2022/12/26 05:38:47;;;;;;;8.43;6.20;;;10.80;99.90;;;;;;5031025;28;20410;-75
2022/12/26 05:41:14;;;;;;;6.65;5.63;;;10.90;99.90;;;;;;5028769;28;20828;-74
2022/12/26 05:43:40;;;;;;;10.00;6.60;;;10.90;99.90;;;;;;5030661;28;20444;-75
2022/12/26 05:46:05;;;;;;;8.63;6.40;;;10.90;99.90;;;;;;5029315;28;20760;-74
2022/12/26 05:48:31;;;;;;;8.05;6.47;;;10.90;99.90;;;;;;5030644;28;20379;-74
2022/12/26 05:51:00;;;;;;;8.68;6.63;;;10.90;99.90;;;;;;5028924;28;20434;-75
2022/12/26 05:53:27;;;;;;;8.73;7.30;;;11.00;99.90;;;;;;5031230;28;20470;-75
2022/12/26 05:55:53;;;;;;;9.07;6.80;;;11.00;99.90;;;;;;5034613;28;20379;-75
2022/12/26 05:58:19;;;;;;;9.68;7.65;;;10.90;99.90;;;;;;5035169;28;20421;-73
2022/12/26 06:00:44;;;;;;;8.45;7.07;;;10.90;99.90;;;;;;5034971;28;20379;-75
2022/12/26 06:03:10;;;;;;;10.37;7.57;;;10.90;99.90;;;;;;5034408;28;20411;-75
2022/12/26 06:05:35;;;;;;;7.43;6.63;;;10.90;99.90;;;;;;5035027;28;20797;-74
2022/12/26 06:08:01;;;;;;;9.47;7.00;;;10.80;99.90;;;;;;5034380;28;20393;-75
2022/12/26 06:10:28;;;;;;;8.65;7.00;;;10.80;99.90;;;;;;5034137;28;20752;-75
2022/12/26 06:12:55;;;;;;;10.32;8.18;;;10.80;99.90;;;;;;5033847;28;20401;-75
2022/12/26 06:15:20;;;;;;;8.60;7.18;;;10.80;99.90;;;;;;5034314;28;20867;-75
2022/12/26 06:17:46;;;;;;;9.02;7.43;;;10.80;99.90;;;;;;5034319;28;20441;-76
2022/12/26 06:20:11;;;;;;;8.63;7.60;;;10.70;99.90;;;;;;5032770;28;20422;-75
2022/12/26 06:22:37;;;;;;;8.98;7.70;;;10.80;99.90;;;;;;5033436;28;20395;-75
2022/12/26 06:25:03;;;;;;;9.98;7.53;;;10.80;99.90;;;;;;5033851;28;20406;-75
2022/12/26 06:27:28;;;;;;;11.02;7.47;;;10.90;99.90;;;;;;5033859;28;20383;-75
2022/12/26 06:29:54;;;;;;;8.88;7.45;;;11.00;99.90;;;;;;5033733;28;20391;-75
2022/12/26 06:32:19;;;;;;;9.77;7.93;;;10.90;99.90;;;;;;5033255;28;20378;-74
2022/12/26 06:34:46;;;;;;;9.33;7.27;;;11.00;99.90;;;;;;5033922;28;20400;-75
2022/12/26 06:37:12;;;;;;;12.57;7.63;;;11.00;99.90;;;;;;5033989;28;20387;-74
2022/12/26 06:39:38;;;;;;;10.57;8.20;;;11.00;99.90;;;;;;5034306;28;20417;-74
2022/12/26 06:42:04;;;;;;;11.10;7.90;;;11.00;99.90;;;;;;5045984;28;20421;-76
2022/12/26 06:44:29;;;;;;;10.40;7.20;;;10.90;99.90;;;;;;5048202;28;20450;-74
2022/12/26 06:46:55;;;;;;;9.07;7.07;;;11.00;99.90;;;;;;5054833;28;20383;-76
2022/12/26 06:49:20;;;;;;;8.83;7.00;;;11.00;99.90;;;;;;5050159;28;20763;-75
2022/12/26 06:51:46;;;;;;;10.13;7.37;;;11.00;99.90;;;;;;5033987;28;20391;-75
2022/12/26 06:54:12;;;;;;;7.83;6.57;;;11.00;99.90;;;;;;5032935;28;20399;-75
2022/12/26 06:56:38;;;;;;;8.80;7.23;;;11.00;99.90;;;;;;5033458;28;20414;-74
2022/12/26 06:59:04;;;;;;;9.93;7.70;;;11.00;99.90;;;;;;5033444;28;20498;-76
2022/12/26 07:01:33;;;;;;;8.95;7.00;;;11.00;99.90;;;;;;5032595;28;20860;-73
2022/12/26 07:03:59;;;;;;;8.25;5.90;;;10.90;99.90;;;;;;5033253;28;20511;-76
2022/12/26 07:06:33;;;;;;;6.93;6.10;;;11.00;99.90;;;;;;5032337;28;20402;-75
2022/12/26 07:09:08;;;;;;;6.53;5.75;;;11.10;99.90;;;;;;5033236;28;20507;-75
2022/12/26 07:11:35;;;;;;;9.23;5.68;;;11.10;99.90;;;;;;5032624;28;20383;-75
2022/12/26 07:14:01;;;;;;;8.57;5.50;;;11.10;99.90;;;;;;5033304;28;20477;-76
2022/12/26 07:16:27;;;;;;;5.05;4.47;;;11.20;99.90;;;;;;5032878;28;20814;-74
2022/12/26 07:18:54;;;;;;;7.75;4.43;;;11.20;99.90;;;;;;5033012;28;20407;-74
2022/12/26 07:21:21;;;;;;;5.03;3.87;;;11.20;99.90;;;;;;5032217;28;20799;-74
2022/12/26 07:23:47;;;;;;;10.18;3.63;;;11.30;99.90;;;;;;5032890;28;20383;-75
2022/12/26 07:26:13;;;;;;;6.10;3.50;;;11.40;99.90;;;;;;5032743;28;20384;-74
2022/12/26 07:28:38;;;;;;;5.57;3.50;;;11.40;99.90;;;;;;5032734;28;20391;-75
2022/12/26 07:31:04;;;;;;;6.43;3.60;;;11.30;99.90;;;;;;5030706;28;20390;-74
2022/12/26 07:33:30;;;;;;;4.23;3.20;;;11.40;99.90;;;;;;5032739;28;20488;-75
2022/12/26 07:36:04;;;;;;;5.63;3.40;;;11.40;99.90;;;;;;5032823;28;20399;-75
2022/12/26 07:38:31;;;;;;;4.40;2.90;;;11.30;99.90;;;;;;5030997;28;20399;-75
2022/12/26 07:40:57;;;;;;;3.50;2.80;;;11.30;99.90;;;;;;5032114;28;20391;-75
2022/12/26 07:43:24;;;;;;;4.70;2.80;;;11.20;99.90;;;;;;5032931;28;20394;-75
2022/12/26 07:45:50;;;;;;;3.55;2.60;;;11.10;99.90;;;;;;5032459;28;20799;-76
2022/12/26 07:48:16;;;;;;;5.77;2.60;;;11.10;99.90;;;;;;5032789;28;20383;-76
2022/12/26 07:50:46;;;;;;;2.58;2.38;;;11.10;99.90;;;;;;5032514;28;20473;-75
2022/12/26 07:53:13;;;;;;;2.47;2.20;;;11.20;99.90;;;;;;5032050;28;20387;-75
2022/12/26 07:55:38;;;;;;;2.40;2.20;;;11.20;99.50;;;;;;5035419;28;20413;-75
2022/12/26 07:58:04;;;;;;;4.20;2.28;;;11.30;99.90;;;;;;5032660;28;20514;-74
2022/12/26 08:00:30;;;;;;;3.30;2.50;;;11.30;98.30;;;;;;5035392;28;20448;-75
2022/12/26 08:02:55;;;;;;;3.90;2.20;;;11.20;99.70;;;;;;5040824;28;20461;-73
2022/12/26 08:05:21;;;;;;;2.60;2.10;;;11.30;95.90;;;;;;5031666;28;20406;-75
2022/12/26 08:07:47;;;;;;;4.47;2.00;;;11.40;93.30;;;;;;5030616;28;20753;-74
2022/12/26 08:10:14;;;;;;;2.53;1.80;;;11.50;89.80;;;;;;5046731;28;20382;-73
2022/12/26 08:12:40;;;;;;;2.60;1.60;;;11.50;87.50;;;;;;5040276;28;20529;-76
2022/12/26 08:15:06;;;;;;;2.63;1.70;;;11.60;85.40;;;;;;5028075;28;20474;-75
2022/12/26 08:17:32;;;;;;;5.80;2.00;;;11.60;84.50;;;;;;5028675;28;20380;-75
2022/12/26 08:19:58;;;;;;;2.22;1.60;;;11.50;83.20;;;;;;5029505;28;20509;-76
2022/12/26 08:22:23;;;;;;;3.28;1.80;;;11.50;84.10;;;;;;5029250;28;20398;-76
2022/12/26 08:24:49;;;;;;;2.72;1.60;;;11.50;83.30;;;;;;5032599;28;20398;-75
2022/12/26 08:27:15;;;;;;;1.90;1.30;;;11.50;85.10;;;;;;5053097;28;20863;-76
2022/12/26 08:29:40;;;;;;;3.90;1.80;;;11.50;85.00;;;;;;5052997;28;20390;-76
2022/12/26 08:32:06;;;;;;;2.50;1.50;;;11.60;84.50;;;;;;5046524;28;20406;-75
2022/12/26 08:34:33;;;;;;;3.60;1.57;;;11.60;83.10;;;;;;5039313;28;20412;-76
2022/12/26 08:36:59;;;;;;;2.90;1.70;;;11.60;83.30;;;;;;5049842;28;20900;-76
2022/12/26 08:39:24;;;;;;;2.67;1.60;;;11.60;83.40;;;;;;5036425;28;20415;-75
2022/12/26 08:41:50;;;;;;;2.70;1.60;;;11.60;83.80;;;;;;5023082;28;20401;-76
2022/12/26 08:44:16;;;;;;;3.00;1.33;;;11.60;81.10;;;;;;5023886;28;20535;-76
2022/12/26 08:46:42;;;;;;;2.30;1.50;;;11.60;80.30;;;;;;5028643;28;20383;-76
2022/12/26 08:49:08;;;;;;;1.70;1.50;;;11.60;81.90;;;;;;5039471;28;20452;-75
2022/12/26 08:51:34;;;;;;;3.90;1.70;;;11.50;84.00;;;;;;5048846;28;20417;-74
2022/12/26 08:54:00;;;;;;;1.70;1.40;;;11.40;83.50;;;;;;5031916;28;20769;-75
2022/12/26 08:56:26;;;;;;;2.33;1.42;;;11.30;85.50;;;;;;5031301;28;20462;-75
2022/12/26 08:58:52;;;;;;;1.88;1.60;;;11.40;85.20;;;;;;5039152;28;20492;-74
2022/12/26 09:01:24;;;;;;;1.93;1.37;;;11.40;85.00;;;;;;5052881;28;20423;-74
2022/12/26 09:03:54;;;;;;;1.50;1.40;;;11.40;84.20;;;;;;5054503;28;20923;-75
2022/12/26 09:06:19;;;;;;;6.10;2.20;;;11.40;84.10;;;;;;5051514;28;20392;-75
2022/12/26 09:08:45;;;;;;;4.60;2.40;;;11.50;84.40;;;;;;5052218;28;20390;-75
2022/12/26 09:11:17;;;;;;;4.00;1.60;;;11.50;83.50;;;;;;5053570;28;20461;-75
2022/12/26 09:13:44;;;;;;;3.10;1.50;;;11.50;84.20;;;;;;5053468;28;20393;-72
2022/12/26 09:16:20;;;;;;;3.50;1.60;;;11.50;83.20;;;;;;5050384;28;20806;-76
2022/12/26 09:18:47;;;;;;;4.70;2.20;;;11.60;81.30;;;;;;5014586;28;20444;-75
2022/12/26 09:21:15;;;;;;;5.78;1.48;;;11.60;81.00;;;;;;5021025;28;20600;-75
2022/12/26 09:23:49;;;;;;;2.20;1.58;;;11.70;79.90;;;;;;5032162;28;20396;-75
2022/12/26 09:26:17;;;;;;;2.17;1.55;;;11.70;79.80;;;;;;5016687;28;20487;-73
2022/12/26 09:28:44;;;;;;;1.40;1.30;;;11.80;77.60;;;;;;5015526;28;20838;-74
2022/12/26 09:31:12;;;;;;;2.65;1.20;;;11.60;77.90;;;;;;5022149;28;20769;-74
2022/12/26 09:33:38;;;;;;;3.63;1.33;;;11.50;77.50;;;;;;5035989;28;20391;-73
2022/12/26 09:36:09;;;;;;;2.45;1.40;;;11.50;78.80;;;;;;5019405;28;20408;-74
2022/12/26 09:38:35;;;;;;;3.97;1.50;;;11.40;79.60;;;;;;5022943;28;20812;-74
2022/12/26 09:41:03;;;;;;;3.45;1.80;;;11.30;79.60;;;;;;5033137;28;20383;-73
2022/12/26 09:43:38;;;;;;;3.45;1.90;;;11.20;81.40;;;;;;5033392;28;20392;-72
2022/12/26 09:46:15;;;;;;;2.42;1.70;;;11.20;82.40;;;;;;5033672;28;20428;-75
2022/12/26 09:49:07;;;;;;;4.22;1.77;;;11.20;83.70;;;;;;5021644;28;20393;-75
2022/12/26 09:51:33;;;;;;;4.63;1.55;;;11.30;81.30;;;;;;5029485;28;20397;-73
2022/12/26 09:54:03;;;;;;;3.90;1.65;;;11.50;80.60;;;;;;5051748;28;20903;-74
2022/12/26 09:56:32;;;;;;;4.15;1.80;;;11.50;79.80;;;;;;5051927;28;20456;-73
2022/12/26 09:59:01;;;;;;;3.80;1.60;;;11.70;77.90;;;;;;5052143;28;20432;-72
2022/12/26 10:01:34;;;;;;;5.43;1.50;;;11.80;75.60;;;;;;5027478;28;20466;-76
2022/12/26 10:04:06;;;;;;;7.13;1.60;;;11.90;73.40;;;;;;5034653;28;20382;-77
2022/12/26 10:06:53;;;;;;;5.03;1.98;;;12.10;71.20;;;;;;5036967;28;20462;-77
2022/12/26 10:09:54;;;;;;;5.88;1.75;;;12.00;70.30;;;;;;5036413;28;20391;-77
2022/12/26 10:12:48;;;;;;;4.70;1.90;;;12.00;69.60;;;;;;5040592;28;20382;-76
2022/12/26 10:15:30;;;;;;;3.10;1.63;;;11.90;67.40;;;;;;5037146;28;20391;-76
2022/12/26 10:18:15;;;;;;;4.03;1.70;;;11.80;68.90;;;;;;5037550;28;20620;-77
2022/12/26 10:21:08;;;;;;;3.67;1.70;;;11.80;68.60;;;;;;5041259;28;20406;-77
2022/12/26 10:24:02;;;;;;;3.00;1.70;;;11.80;70.50;;;;;;5041379;28;20414;-77
2022/12/26 10:26:35;;;;;;;4.75;2.03;;;11.90;70.00;;;;;;5032808;28;20395;-77
2022/12/26 10:29:08;;;;;;;5.82;2.00;;;11.80;70.30;;;;;;5043121;28;20479;-77
2022/12/26 10:31:59;;;;;;;4.80;2.10;;;11.80;71.00;;;;;;5042340;28;20383;-78
2022/12/26 10:34:34;;;;;;;4.40;1.70;;;11.80;71.60;;;;;;5042685;28;20864;-76
2022/12/26 10:37:14;;;;;;;4.30;1.60;;;12.00;68.50;;;;;;5042615;28;20398;-77
2022/12/26 10:40:07;;;;;;;4.10;1.90;;;12.10;66.00;;;;;;5038627;28;20407;-78
2022/12/26 10:42:45;;;;;;;6.45;1.90;;;12.10;66.30;;;;;;5044040;28;20739;-78
2022/12/26 10:45:26;;;;;;;3.45;1.90;;;12.20;65.60;;;;;;5041374;28;20387;-76
2022/12/26 10:47:53;;;;;;;3.92;1.70;;;12.40;61.80;;;;;;5044177;28;20407;-79
2022/12/26 10:50:30;;;;;;;5.35;1.98;;;12.40;60.80;;;;;;5047914;28;20375;-78
2022/12/26 10:52:57;;;;;;;3.55;1.95;;;12.40;59.80;;;;;;5054421;28;20379;-75
2022/12/26 10:55:28;;;;;;;6.72;1.90;;;12.60;58.90;;;;;;5055375;28;20390;-76
2022/12/26 10:57:54;;;;;;;4.80;1.50;;;12.60;58.10;;;;;;5045978;28;20405;-77
2022/12/26 11:00:25;;;;;;;6.85;1.60;;;12.70;57.20;;;;;;5045116;28;20763;-75
2022/12/26 11:03:18;;;;;;;4.70;1.60;;;12.70;57.10;;;;;;5042675;28;20410;-77
2022/12/26 11:05:52;;;;;;;5.53;1.98;;;12.70;56.50;;;;;;5039404;28;20372;-78
2022/12/26 11:08:39;;;;;;;4.90;1.50;;;12.80;56.70;;;;;;5039821;28;20391;-76
2022/12/26 11:11:19;;;;;;;5.75;1.83;;;12.90;53.80;;;;;;5039350;28;20387;-77
2022/12/26 11:13:54;;;;;;;7.75;1.95;;;12.90;53.70;;;;;;5038634;28;20391;-77
2022/12/26 11:16:29;;;;;;;5.00;1.60;;;12.80;55.00;;;;;;5036562;28;20391;-76
2022/12/26 11:18:56;;;;;;;5.60;1.60;;;12.70;54.40;;;;;;5046540;28;20411;-76
2022/12/26 11:21:24;;;;;;;5.35;1.60;;;12.70;56.10;;;;;;5044366;28;20411;-78
2022/12/26 11:23:52;;;;;;;5.00;1.80;;;12.60;56.20;;;;;;5043962;28;20383;-75
2022/12/26 11:26:22;;;;;;;5.97;1.90;;;12.60;54.90;;;;;;5051620;28;20410;-75
2022/12/26 11:29:13;;;;;;;3.92;1.80;;;12.60;55.30;;;;;;5048397;28;20383;-76
2022/12/26 11:31:59;;;;;;;4.30;1.70;;;12.80;54.80;;;;;;5038388;28;20402;-78
2022/12/26 11:34:36;;;;;;;6.50;2.20;;;12.80;54.40;;;;;;5038623;28;20479;-78
2022/12/26 11:37:03;;;;;;;4.68;1.88;;;12.90;53.50;;;;;;5038805;28;20379;-77
2022/12/26 11:39:34;;;;;;;6.50;1.80;;;12.90;52.50;;;;;;5040770;28;20457;-78
2022/12/26 11:42:11;;;;;;;4.38;1.40;;;12.90;51.30;;;;;;5040993;28;20382;-75
2022/12/26 11:44:43;;;;;;;3.88;1.73;;;12.80;53.00;;;;;;5044661;28;20789;-77
2022/12/26 11:47:18;;;;;;;2.88;1.30;;;12.70;53.60;;;;;;5038764;28;20383;-78
2022/12/26 11:50:05;;;;;;;3.40;1.60;;;12.60;53.80;;;;;;5039182;28;20416;-78
2022/12/26 11:52:36;;;;;;;6.28;1.77;;;12.60;54.90;;;;;;5039902;28;20386;-77
2022/12/26 11:55:22;;;;;;;5.10;1.60;;;12.50;56.10;;;;;;5041976;28;20391;-77
2022/12/26 11:58:05;;;;;;;4.82;1.67;;;12.40;55.30;;;;;;5040111;28;20896;-78
2022/12/26 12:00:36;;;;;;;4.20;1.50;;;12.30;57.50;;;;;;5036058;28;20456;-77
2022/12/26 12:03:10;;;;;;;4.40;1.50;;;12.30;60.50;;;;;;5033350;28;20406;-79
2022/12/26 12:05:50;;;;;;;4.25;1.40;;;12.20;63.10;;;;;;5035969;28;20383;-77
2022/12/26 12:08:30;;;;;;;4.22;1.60;;;12.20;62.80;;;;;;5037403;28;20393;-77
2022/12/26 12:11:03;;;;;;;3.20;1.50;;;12.20;63.50;;;;;;5034784;28;20402;-77
2022/12/26 12:13:48;;;;;;;4.90;1.48;;;12.20;63.80;;;;;;5036269;28;20387;-78
2022/12/26 12:16:30;;;;;;;5.43;1.20;;;12.40;61.50;;;;;;5036125;28;20969;-77
2022/12/26 12:19:10;;;;;;;3.92;1.10;;;12.40;58.90;;;;;;5034799;28;20402;-77
2022/12/26 12:21:56;;;;;;;4.45;1.50;;;12.40;59.40;;;;;;5034664;28;20383;-77
2022/12/26 12:24:57;;;;;;;4.40;1.30;;;12.40;59.50;;;;;;5037146;28;20387;-77
2022/12/26 12:27:46;;;;;;;4.30;1.40;;;12.40;62.10;;;;;;5036600;28;20917;-77
2022/12/26 12:30:23;;;;;;;3.60;1.60;;;12.30;61.60;;;;;;5036331;28;20474;-76
2022/12/26 12:33:31;;;;;;;3.85;1.50;;;12.20;61.90;;;;;;5036367;28;20390;-77
2022/12/26 12:36:08;;;;;;;5.65;1.45;;;12.10;64.10;;;;;;5035902;28;20422;-77
2022/12/26 12:38:49;;;;;;;4.03;1.48;;;12.00;64.60;;;;;;5036338;28;20403;-79
2022/12/26 12:41:49;;;;;;;5.45;2.10;;;11.90;64.20;;;;;;5035507;28;20441;-78
2022/12/26 12:44:23;;;;;;;3.28;1.55;;;11.90;66.70;;;;;;5036021;28;20379;-77
2022/12/26 12:47:05;;;;;;;4.45;2.05;;;11.80;68.60;;;;;;5036493;28;20391;-77
2022/12/26 12:49:45;;;;;;;3.50;1.50;;;11.80;67.00;;;;;;5035944;28;20422;-77
2022/12/26 12:52:40;;;;;;;4.05;1.80;;;11.80;65.60;;;;;;5035488;28;20388;-78
2022/12/26 12:55:22;;;;;;;6.63;2.00;;;11.90;65.20;;;;;;5041419;28;20462;-77
2022/12/26 12:57:58;;;;;;;3.65;1.70;;;11.80;64.90;;;;;;5034129;28;20427;-78
2022/12/26 13:00:46;;;;;;;6.07;2.22;;;11.70;67.60;;;;;;5037289;28;20441;-78
2022/12/26 13:03:47;;;;;;;4.78;1.60;;;11.60;67.50;;;;;;5033881;28;20502;-77
2022/12/26 13:06:23;;;;;;;9.10;2.10;;;11.60;68.50;;;;;;5039567;28;20388;-76
2022/12/26 13:08:54;;;;;;;6.32;1.23;;;11.60;67.90;;;;;;5036153;28;20451;-78
2022/12/26 13:11:27;;;;;;;3.30;1.20;;;11.30;55.60;;;;;;5037433;28;20383;-77
2022/12/26 13:14:13;;;;;;;3.42;1.23;;;10.80;55.80;;;;;;5034729;28;20764;-77
2022/12/26 13:16:42;;;;;;;6.70;1.40;;;10.50;57.10;;;;;;5035600;28;20701;-77
2022/12/26 13:19:21;;;;;;;7.70;1.30;;;10.40;55.90;;;;;;5035287;28;20506;-77
2022/12/26 13:21:49;;;;;;;3.72;1.30;;;10.30;55.90;;;;;;5035204;28;20398;-78
2022/12/26 13:24:24;;;;;;;5.80;1.77;;;10.30;53.70;;;;;;5036177;28;20410;-77
2022/12/26 13:27:02;;;;;;;3.10;1.47;;;10.30;52.60;;;;;;5035070;28;20379;-78
2022/12/26 13:29:33;;;;;;;6.18;1.38;;;10.40;52.80;;;;;;5035181;28;20398;-77
2022/12/26 13:32:00;;;;;;;6.30;1.40;;;10.40;53.20;;;;;;5035797;28;20388;-76
2022/12/26 13:34:25;;;;;;;4.30;1.40;;;10.50;54.10;;;;;;5038084;28;20872;-77
2022/12/26 13:36:56;;;;;;;3.47;1.20;;;10.50;51.80;;;;;;5041065;28;20525;-75
2022/12/26 13:39:22;;;;;;;5.07;1.20;;;10.50;53.40;;;;;;5041014;28;20453;-77
2022/12/26 13:44:36;;;;;;;2.25;1.33;;;10.40;54.40;;;;;;5035993;28;20437;-77
2022/12/26 13:47:02;;;;;;;6.43;1.67;;;10.40;55.70;;;;;;5038768;28;20379;-76
2022/12/26 13:49:41;;;;;;;7.13;1.70;;;10.30;55.50;;;;;;5037636;28;20394;-77
2022/12/26 13:52:09;;;;;;;6.47;2.00;;;10.40;54.30;;;;;;5043752;28;20366;-76
2022/12/26 13:54:56;;;;;;;2.90;1.40;;;10.40;55.70;;;;;;5042220;28;20473;-79
2022/12/26 13:57:35;;;;;;;5.60;1.90;;;10.30;54.30;;;;;;5030324;28;20467;-76
2022/12/26 14:00:15;;;;;;;6.00;1.73;;;10.30;55.50;;;;;;5039758;28;20403;-77
2022/12/26 14:03:23;;;;;;;7.82;1.80;;;10.20;57.60;;;;;;5040300;28;20447;-77
2022/12/26 14:06:06;;;;;;;5.15;1.95;;;10.20;59.80;;;;;;5036652;28;20410;-77
2022/12/26 14:09:02;;;;;;;7.57;1.90;;;10.30;58.50;;;;;;5033324;28;20398;-76
2022/12/26 14:11:52;;;;;;;7.57;2.05;;;10.30;56.30;;;;;;5034285;28;20383;-76
2022/12/26 14:14:36;;;;;;;8.73;1.98;;;10.30;55.10;;;;;;5036987;28;20379;-77
2022/12/26 14:17:39;;;;;;;7.20;1.83;;;10.30;55.50;;;;;;5039087;28;20475;-79
2022/12/26 14:20:25;;;;;;;8.45;1.90;;;10.20;52.70;;;;;;5027451;28;20918;-79
2022/12/26 14:23:09;;;;;;;8.55;1.80;;;10.40;53.80;;;;;;5038570;28;20387;-76
2022/12/26 14:26:00;;;;;;;4.32;1.80;;;10.40;55.90;;;;;;5036336;28;20751;-77
2022/12/26 14:28:44;;;;;;;5.43;2.20;;;10.30;54.80;;;;;;5038962;28;20446;-78
2022/12/26 14:31:20;;;;;;;6.85;1.60;;;10.20;55.80;;;;;;5038396;28;20387;-77
2022/12/26 14:34:10;;;;;;;7.53;1.58;;;10.00;52.50;;;;;;5040001;28;20513;-78
2022/12/26 14:37:02;;;;;;;8.23;2.05;;;9.80;51.20;;;;;;5045126;28;20397;-77
2022/12/26 14:39:45;;;;;;;9.35;2.22;;;9.70;50.30;;;;;;5042195;28;20406;-77
2022/12/26 14:45:10;;;;;;;11.00;2.20;;;9.60;50.30;;;;;;5038873;28;20410;-78
2022/12/26 14:47:43;;;;;;;6.65;1.80;;;9.50;50.90;;;;;;5037956;28;20405;-78
2022/12/26 14:50:30;;;;;;;8.10;2.25;;;9.60;48.90;;;;;;5039003;28;20387;-77
2022/12/26 14:53:20;;;;;;;7.70;2.00;;;9.50;47.00;;;;;;5040137;28;20383;-77
2022/12/26 14:55:57;;;;;;;11.27;2.10;;;9.50;46.20;;;;;;5039327;28;20387;-79
2022/12/26 14:58:41;;;;;;;9.48;2.03;;;9.50;43.90;;;;;;5062144;23;20934;-77
2022/12/26 15:01:14;;;;;;;8.82;2.13;;;9.50;43.00;;;;;;5034256;28;20649;-78
2022/12/26 15:04:07;;;;;;;8.77;1.80;;;9.50;43.80;;;;;;5032818;28;20410;-77
2022/12/26 15:07:10;;;;;;;6.78;1.90;;;9.60;44.10;;;;;;5033348;28;20421;-77
2022/12/26 15:10:20;;;;;;;6.63;1.90;;;9.60;45.60;;;;;;5031586;28;20527;-77
2022/12/26 15:13:43;;;;;;;7.68;1.95;;;9.60;46.10;;;;;;5032607;28;20739;-77
2022/12/26 15:16:18;;;;;;;6.15;2.10;;;9.70;48.50;;;;;;5012163;28;20395;-77
2022/12/26 15:19:15;;;;;;;10.00;2.30;;;9.70;47.00;;;;;;5012669;28;20432;-77
2022/12/26 15:21:49;;;;;;;7.28;2.92;;;9.60;49.20;;;;;;5026904;28;20407;-77
2022/12/26 15:24:45;;;;;;;15.18;3.55;;;9.50;51.20;;;;;;5033521;28;20913;-78